createdAt,value
2019-05-06T00:01:08.586Z,101333.76
2019-05-06T00:02:43.671Z,101339.88
2019-05-06T00:04:18.457Z,101328.81
2019-05-06T00:05:54.416Z,101331.81
2019-05-06T00:07:29.174Z,101338.23
2019-05-06T00:09:05.641Z,101339.44
2019-05-06T00:10:41.624Z,101332.09
2019-05-06T00:12:16.346Z,101329.41
2019-05-06T00:13:51.033Z,101326.57
2019-05-06T00:15:27.243Z,101325.18
2019-05-06T00:17:03.918Z,101328.16
2019-05-06T00:18:38.264Z,101326.66
2019-05-06T00:20:14.715Z,101335.82
2019-05-06T00:21:49.377Z,101332.52
2019-05-06T00:23:31.922Z,101328.56
2019-05-06T00:25:11.711Z,101325.92
2019-05-06T00:27:14.157Z,101323.41
2019-05-06T00:28:53.915Z,101324.82
2019-05-06T00:30:28.685Z,101320.73
2019-05-06T00:32:04.395Z,101318.95
2019-05-06T00:33:39.251Z,101320.04
2019-05-06T00:35:14.246Z,101318.23
2019-05-06T00:36:48.958Z,101316.62
2019-05-06T00:38:24.604Z,101317.44
2019-05-06T00:40:08.199Z,101317.27
2019-05-06T00:41:45.666Z,101315.14
2019-05-06T00:43:20.316Z,101314.13
2019-05-06T00:44:54.971Z,101319.91
2019-05-06T00:46:30.645Z,101315.11
2019-05-06T00:48:05.490Z,101313.15
2019-05-06T00:49:40.136Z,101310.84
2019-05-06T00:51:14.880Z,101308.81
2019-05-06T00:52:50.641Z,101308.00
2019-05-06T00:54:26.431Z,101301.41
2019-05-06T00:56:01.216Z,101305.18
2019-05-06T00:57:45.150Z,101308.58
2019-05-06T00:59:19.791Z,101311.95
2019-05-06T01:00:54.778Z,101312.88
2019-05-06T01:02:29.392Z,101314.39
2019-05-06T01:04:05.081Z,101316.36
2019-05-06T01:05:39.699Z,101316.86
2019-05-06T01:07:14.400Z,101314.63
2019-05-06T01:08:49.043Z,101319.89
2019-05-06T01:10:23.890Z,101315.69
2019-05-06T01:11:59.603Z,101318.14
2019-05-06T01:13:43.790Z,101324.13
2019-05-06T01:15:19.799Z,101319.99
2019-05-06T01:16:54.848Z,101319.66
2019-05-06T01:18:30.692Z,101319.66
2019-05-06T01:20:05.388Z,101321.03
2019-05-06T01:21:40.048Z,101320.22
2019-05-06T01:23:14.671Z,101319.48
2019-05-06T01:24:49.393Z,101317.30
2019-05-06T01:26:24.387Z,101319.48
2019-05-06T01:27:59.141Z,101318.55
2019-05-06T01:29:34.765Z,101314.61
2019-05-06T01:31:09.706Z,101314.91
2019-05-06T01:32:44.653Z,101320.55
2019-05-06T01:34:19.300Z,101320.63
2019-05-06T01:35:54.243Z,101322.25
2019-05-06T01:37:29.038Z,101324.78
2019-05-06T01:39:13.903Z,101317.91
2019-05-06T01:41:00.762Z,101320.00
2019-05-06T01:42:44.634Z,101314.23
2019-05-06T01:44:19.293Z,101318.05
2019-05-06T01:45:53.914Z,101315.48
2019-05-06T01:47:28.832Z,101320.36
2019-05-06T01:49:04.224Z,101318.13
2019-05-06T01:50:39.080Z,101317.42
2019-05-06T01:52:14.879Z,101321.30
2019-05-06T01:53:50.401Z,101318.43
2019-05-06T01:55:25.119Z,101322.93
2019-05-06T01:56:59.763Z,101320.76
2019-05-06T01:58:34.404Z,101325.68
2019-05-06T02:00:10.679Z,101322.81
2019-05-06T02:01:57.373Z,101320.19
2019-05-06T02:03:24.218Z,101319.75
2019-05-06T02:04:59.196Z,101320.36
2019-05-06T02:06:34.427Z,101321.49
2019-05-06T02:08:09.220Z,101319.60
2019-05-06T02:09:44.758Z,101318.36
2019-05-06T02:11:20.555Z,101318.78
2019-05-06T02:12:55.188Z,101316.00
2019-05-06T02:14:29.835Z,101315.78
2019-05-06T02:16:04.499Z,101311.24
2019-05-06T02:17:39.133Z,101305.05
2019-05-06T02:19:14.829Z,101315.58
2019-05-06T02:20:51.459Z,101310.70
2019-05-06T02:22:41.782Z,101316.47
2019-05-06T02:24:21.317Z,101305.28
2019-05-06T02:25:55.988Z,101306.05
2019-05-06T02:27:30.658Z,101308.11
2019-05-06T02:29:07.495Z,101309.07
2019-05-06T02:30:59.753Z,101308.06
2019-05-06T02:32:55.629Z,101310.50
2019-05-06T02:34:54.659Z,101302.86
2019-05-06T02:36:36.300Z,101305.11
2019-05-06T02:38:46.944Z,101308.83
2019-05-06T02:40:25.022Z,101311.47
2019-05-06T02:41:58.019Z,101311.33
2019-05-06T02:43:34.557Z,101311.65
2019-05-06T02:45:12.570Z,101311.20
2019-05-06T02:46:49.079Z,101312.70
2019-05-06T02:48:33.582Z,101307.73
2019-05-06T02:50:13.326Z,101312.91
2019-05-06T02:51:47.931Z,101309.39
2019-05-06T02:53:24.392Z,101312.59
2019-05-06T02:54:59.468Z,101315.17
2019-05-06T02:56:35.165Z,101313.16
2019-05-06T02:58:09.808Z,101308.86
2019-05-06T02:59:44.417Z,101308.13
2019-05-06T03:01:19.072Z,101311.07
2019-05-06T03:02:54.336Z,101309.52
2019-05-06T03:04:29.101Z,101309.27
2019-05-06T03:06:04.507Z,101308.00
2019-05-06T03:07:39.418Z,101307.67
2019-05-06T03:09:14.068Z,101306.20
2019-05-06T03:10:48.779Z,101307.08
2019-05-06T03:12:23.493Z,101299.17
2019-05-06T03:13:58.159Z,101301.77
2019-05-06T03:15:34.300Z,101294.84
2019-05-06T03:17:09.217Z,101298.33
2019-05-06T03:18:43.923Z,101297.27
2019-05-06T03:20:39.270Z,101293.94
2019-05-06T03:22:54.251Z,101290.38
2019-05-06T03:24:54.462Z,101286.02
2019-05-06T03:26:29.024Z,101289.23
2019-05-06T03:28:04.395Z,101294.50
2019-05-06T03:29:39.198Z,101290.58
2019-05-06T03:31:16.872Z,101286.50
2019-05-06T03:33:28.262Z,101289.64
2019-05-06T03:34:49.384Z,101285.88
2019-05-06T03:36:15.453Z,101284.16
2019-05-06T03:37:40.202Z,101289.30
2019-05-06T03:39:14.870Z,101290.21
2019-05-06T03:40:49.481Z,101288.02
2019-05-06T03:42:24.180Z,101284.11
2019-05-06T03:43:58.843Z,101293.37
2019-05-06T03:45:49.038Z,101289.02
2019-05-06T03:47:54.267Z,101286.23
2019-05-06T03:49:33.734Z,101291.55
2019-05-06T03:51:06.891Z,101287.73
2019-05-06T03:52:43.049Z,101290.91
2019-05-06T03:54:18.750Z,101293.02
2019-05-06T03:55:54.648Z,101290.41
2019-05-06T03:57:29.760Z,101289.80
2019-05-06T03:59:05.164Z,101289.03
2019-05-06T04:00:39.979Z,101295.86
2019-05-06T04:02:14.605Z,101291.95
2019-05-06T04:03:55.890Z,101293.05
2019-05-06T04:05:25.546Z,101294.44
2019-05-06T04:07:03.390Z,101291.23
2019-05-06T04:08:37.802Z,101289.31
2019-05-06T04:10:13.773Z,101292.86
2019-05-06T04:11:54.075Z,101285.86
2019-05-06T04:13:27.909Z,101290.48
2019-05-06T04:15:04.073Z,101293.00
2019-05-06T04:16:53.183Z,101289.70
2019-05-06T04:18:27.924Z,101291.83
2019-05-06T04:20:12.755Z,101291.69
2019-05-06T04:22:12.565Z,101293.72
2019-05-06T04:23:57.229Z,101297.87
2019-05-06T04:25:43.461Z,101304.44
2019-05-06T04:27:53.783Z,101305.31
2019-05-06T04:29:28.944Z,101305.69
2019-05-06T04:31:04.327Z,101301.94
2019-05-06T04:32:39.027Z,101299.72
2019-05-06T04:34:19.342Z,101308.19
2019-05-06T04:36:04.584Z,101302.25
2019-05-06T04:37:39.482Z,101306.20
2019-05-06T04:39:14.800Z,101309.49
2019-05-06T04:40:49.532Z,101308.93
2019-05-06T04:42:26.995Z,101315.16
2019-05-06T04:44:02.924Z,101308.88
2019-05-06T04:45:37.335Z,101313.09
2019-05-06T04:47:14.721Z,101311.02
2019-05-06T04:48:48.408Z,101313.53
2019-05-06T04:50:24.219Z,101314.52
2019-05-06T04:52:03.413Z,101315.33
2019-05-06T04:53:36.670Z,101316.19
2019-05-06T04:55:14.105Z,101316.73
2019-05-06T04:56:48.360Z,101315.50
2019-05-06T04:58:23.574Z,101319.25
2019-05-06T04:59:58.569Z,101322.70
2019-05-06T05:01:34.264Z,101320.23
2019-05-06T05:03:09.197Z,101319.30
2019-05-06T05:04:43.897Z,101319.42
2019-05-06T05:06:18.558Z,101321.12
2019-05-06T05:07:53.271Z,101321.69
2019-05-06T05:09:28.066Z,101323.12
2019-05-06T05:11:08.855Z,101322.53
2019-05-06T05:12:52.755Z,101326.48
2019-05-06T05:14:35.966Z,101324.05
2019-05-06T05:16:38.844Z,101323.40
2019-05-06T05:18:35.824Z,101324.50
2019-05-06T05:20:12.557Z,101324.91
2019-05-06T05:21:46.970Z,101326.84
2019-05-06T05:23:22.878Z,101323.38
2019-05-06T05:24:57.573Z,101329.61
2019-05-06T05:26:32.413Z,101328.13
2019-05-06T05:28:07.114Z,101322.35
2019-05-06T05:29:42.447Z,101319.00
2019-05-06T05:31:17.438Z,101320.44
2019-05-06T05:32:52.204Z,101319.66
2019-05-06T05:34:38.059Z,101326.40
2019-05-06T05:36:04.486Z,101326.94
2019-05-06T05:37:39.308Z,101329.45
2019-05-06T05:39:14.111Z,101329.45
2019-05-06T05:40:48.742Z,101332.53
2019-05-06T05:42:30.034Z,101327.47
2019-05-06T05:44:11.911Z,101330.42
2019-05-06T05:45:46.410Z,101334.06
2019-05-06T05:47:22.101Z,101338.05
2019-05-06T05:49:09.314Z,101336.80
2019-05-06T05:50:44.159Z,101331.16
2019-05-06T05:52:19.185Z,101336.08
2019-05-06T05:53:53.947Z,101330.42
2019-05-06T05:55:28.619Z,101331.64
2019-05-06T05:57:03.316Z,101330.50
2019-05-06T05:58:37.982Z,101331.19
2019-05-06T06:00:13.257Z,101331.07
2019-05-06T06:01:47.913Z,101333.98
2019-05-06T06:03:22.632Z,101328.91
2019-05-06T06:04:57.871Z,101332.25
2019-05-06T06:06:35.498Z,101339.48
2019-05-06T06:08:10.239Z,101337.87
2019-05-06T06:09:56.233Z,101341.65
2019-05-06T06:11:48.323Z,101336.66
2019-05-06T06:13:23.006Z,101338.52
2019-05-06T06:15:22.901Z,101338.42
2019-05-06T06:17:08.032Z,101337.12
2019-05-06T06:18:52.458Z,101334.04
2019-05-06T06:20:45.233Z,101338.66
2019-05-06T06:22:22.760Z,101338.22
2019-05-06T06:24:02.686Z,101344.06
2019-05-06T06:25:37.263Z,101344.06
2019-05-06T06:27:12.578Z,101351.09
2019-05-06T06:28:47.409Z,101351.09
2019-05-06T06:30:33.015Z,101339.34
2019-05-06T06:32:18.380Z,101339.34
2019-05-06T06:33:56.739Z,101351.73
2019-05-06T06:35:38.398Z,101337.45
2019-05-06T06:37:36.267Z,101344.94
2019-05-06T06:39:17.586Z,101345.69
2019-05-06T06:40:55.455Z,101344.15
2019-05-06T06:42:28.848Z,101336.50
2019-05-06T06:44:06.577Z,101336.50
2019-05-06T06:45:42.194Z,101342.48
2019-05-06T06:47:17.075Z,101342.48
2019-05-06T06:48:52.738Z,101329.02
2019-05-06T06:50:28.465Z,101327.02
2019-05-06T06:52:03.206Z,101327.02
2019-05-06T06:53:37.867Z,101342.27
2019-05-06T06:55:12.997Z,101344.55
2019-05-06T06:57:09.418Z,101342.71
2019-05-06T06:59:02.582Z,101339.80
2019-05-06T07:00:58.592Z,101341.15
2019-05-06T07:02:55.544Z,101341.94
2019-05-06T07:04:38.083Z,101350.11
2019-05-06T07:06:18.644Z,101349.84
2019-05-06T07:07:53.469Z,101350.45
2019-05-06T07:09:29.712Z,101342.76
2019-05-06T07:11:04.628Z,101341.73
2019-05-06T07:12:39.260Z,101340.83
2019-05-06T07:14:13.996Z,101338.89
2019-05-06T07:15:48.648Z,101341.27
2019-05-06T07:17:23.307Z,101335.39
2019-05-06T07:18:58.141Z,101340.60
2019-05-06T07:20:37.247Z,101333.69
2019-05-06T07:22:12.730Z,101333.13
2019-05-06T07:23:47.559Z,101332.19
2019-05-06T07:25:22.766Z,101327.08
2019-05-06T07:27:19.921Z,101332.23
2019-05-06T07:28:54.595Z,101326.14
2019-05-06T07:30:33.470Z,101334.22
2019-05-06T07:32:08.103Z,101331.92
2019-05-06T07:33:43.079Z,101341.84
2019-05-06T07:35:17.780Z,101331.91
2019-05-06T07:36:52.730Z,101327.76
2019-05-06T07:38:27.546Z,101327.88
2019-05-06T07:40:03.085Z,101333.00
2019-05-06T07:41:45.879Z,101324.39
2019-05-06T07:43:34.696Z,101320.19
2019-05-06T07:45:32.847Z,101331.18
2019-05-06T07:47:15.780Z,101334.54
2019-05-06T07:48:51.880Z,101324.51
2019-05-06T07:50:26.679Z,101316.56
2019-05-06T07:52:02.872Z,101319.94
2019-05-06T07:53:38.791Z,101329.14
2019-05-06T07:55:13.892Z,101323.47
2019-05-06T07:56:48.709Z,101324.48
2019-05-06T07:58:23.370Z,101318.30
2019-05-06T07:59:58.018Z,101331.20
2019-05-06T08:01:33.303Z,101320.83
2019-05-06T08:03:08.287Z,101329.44
2019-05-06T08:04:42.999Z,101323.73
2019-05-06T08:06:17.659Z,101331.73
2019-05-06T08:07:55.038Z,101335.37
2019-05-06T08:09:28.764Z,101330.38
2019-05-06T08:11:03.415Z,101325.97
2019-05-06T08:12:38.064Z,101323.16
2019-05-06T08:14:13.675Z,101324.70
2019-05-06T08:15:48.587Z,101323.30
2019-05-06T08:17:32.916Z,101324.99
2019-05-06T08:19:07.244Z,101328.66
2019-05-06T08:20:42.730Z,101312.14
2019-05-06T08:22:22.708Z,101319.33
2019-05-06T08:23:57.753Z,101316.38
2019-05-06T08:25:42.496Z,101316.11
2019-05-06T08:27:17.308Z,101320.09
2019-05-06T08:28:52.732Z,101319.32
2019-05-06T08:30:27.691Z,101312.52
2019-05-06T08:32:02.924Z,101321.31
2019-05-06T08:33:37.803Z,101307.86
2019-05-06T08:35:13.497Z,101310.98
2019-05-06T08:37:05.933Z,101305.33
2019-05-06T08:38:57.693Z,101306.08
2019-05-06T08:40:32.388Z,101302.74
2019-05-06T08:42:08.473Z,101308.19
2019-05-06T08:43:43.238Z,101308.70
2019-05-06T08:45:17.985Z,101311.44
2019-05-06T08:46:53.245Z,101299.05
2019-05-06T08:48:28.033Z,101299.02
2019-05-06T08:50:22.156Z,101300.22
2019-05-06T08:52:02.533Z,101304.68
2019-05-06T08:53:45.290Z,101301.36
2019-05-06T08:55:29.413Z,101311.87
2019-05-06T08:57:04.392Z,101298.35
2019-05-06T08:58:46.857Z,101306.77
2019-05-06T09:00:22.756Z,101306.52
2019-05-06T09:01:59.231Z,101301.78
2019-05-06T09:03:33.837Z,101305.75
2019-05-06T09:05:08.482Z,101302.11
2019-05-06T09:06:43.428Z,101294.70
2019-05-06T09:08:18.044Z,101296.69
2019-05-06T09:09:52.806Z,101295.19
2019-05-06T09:11:28.074Z,101300.28
2019-05-06T09:13:02.762Z,101303.88
2019-05-06T09:14:38.484Z,101294.81
2019-05-06T09:16:13.142Z,101294.34
2019-05-06T09:17:47.778Z,101290.20
2019-05-06T09:19:23.339Z,101303.29
2019-05-06T09:20:58.188Z,101296.02
2019-05-06T09:22:32.954Z,101295.09
2019-05-06T09:24:07.676Z,101295.25
2019-05-06T09:25:42.550Z,101296.98
2019-05-06T09:27:39.210Z,101302.50
2019-05-06T09:29:23.069Z,101289.16
2019-05-06T09:31:15.769Z,101293.30
2019-05-06T09:32:52.114Z,101285.95
2019-05-06T09:34:58.208Z,101289.31
2019-05-06T09:36:43.708Z,101291.81
2019-05-06T09:38:12.742Z,101289.52
2019-05-06T09:39:47.930Z,101294.39
2019-05-06T09:41:23.175Z,101290.97
2019-05-06T09:42:57.844Z,101297.39
2019-05-06T09:44:33.026Z,101295.38
2019-05-06T09:46:08.215Z,101286.89
2019-05-06T09:47:48.709Z,101290.14
2019-05-06T09:49:24.846Z,101284.66
2019-05-06T09:50:59.482Z,101284.31
2019-05-06T09:52:34.139Z,101280.70
2019-05-06T09:54:15.170Z,101287.45
2019-05-06T09:56:07.758Z,101282.37
2019-05-06T09:58:19.730Z,101277.31
2019-05-06T09:59:54.374Z,101284.55
2019-05-06T10:01:29.033Z,101287.45
2019-05-06T10:03:03.984Z,101281.43
2019-05-06T10:04:38.701Z,101284.86
2019-05-06T10:06:13.413Z,101282.29
2019-05-06T10:07:48.107Z,101281.03
2019-05-06T10:09:24.922Z,101281.97
2019-05-06T10:11:00.040Z,101280.48
2019-05-06T10:12:34.745Z,101283.30
2019-05-06T10:14:09.774Z,101279.06
2019-05-06T10:15:44.495Z,101275.40
2019-05-06T10:17:19.270Z,101282.83
2019-05-06T10:18:53.989Z,101279.43
2019-05-06T10:20:28.660Z,101284.69
2019-05-06T10:22:03.672Z,101283.16
2019-05-06T10:23:38.823Z,101279.55
2019-05-06T10:25:14.304Z,101292.46
2019-05-06T10:26:53.679Z,101276.58
2019-05-06T10:28:37.711Z,101283.41
2019-05-06T10:30:12.960Z,101273.66
2019-05-06T10:31:52.389Z,101282.09
2019-05-06T10:33:28.078Z,101277.62
2019-05-06T10:35:02.969Z,101272.66
2019-05-06T10:36:47.192Z,101281.16
2019-05-06T10:38:35.399Z,101277.63
2019-05-06T10:40:15.440Z,101272.23
2019-05-06T10:41:53.878Z,101274.98
2019-05-06T10:43:36.377Z,101270.33
2019-05-06T10:45:27.200Z,101267.73
2019-05-06T10:47:02.925Z,101268.65
2019-05-06T10:48:37.767Z,101269.34
2019-05-06T10:50:12.728Z,101269.73
2019-05-06T10:52:06.321Z,101266.30
2019-05-06T10:53:42.463Z,101262.44
2019-05-06T10:55:17.341Z,101259.62
2019-05-06T10:57:03.895Z,101260.53
2019-05-06T10:58:38.537Z,101252.38
2019-05-06T11:00:13.247Z,101259.24
2019-05-06T11:03:41.997Z,101250.23
2019-05-06T11:05:16.865Z,101253.05
2019-05-06T11:06:52.510Z,101259.66
2019-05-06T11:08:27.376Z,101252.11
2019-05-06T11:10:02.707Z,101251.84
2019-05-06T11:11:38.832Z,101251.22
2019-05-06T11:13:15.116Z,101248.92
2019-05-06T11:14:55.283Z,101240.53
2019-05-06T11:16:26.242Z,101231.63
2019-05-06T11:18:04.102Z,101237.80
2019-05-06T11:19:37.253Z,101238.24
2019-05-06T11:21:12.764Z,101235.38
2019-05-06T11:22:47.624Z,101241.61
2019-05-06T11:24:23.133Z,101240.88
2019-05-06T11:25:57.884Z,101233.23
2019-05-06T11:27:37.500Z,101247.08
2019-05-06T11:29:15.222Z,101239.77
2019-05-06T11:31:09.387Z,101238.27
2019-05-06T11:32:54.601Z,101235.06
2019-05-06T11:34:45.262Z,101233.34
2019-05-06T11:36:45.249Z,101239.94
2019-05-06T11:38:22.783Z,101239.64
2019-05-06T11:39:57.536Z,101238.16
2019-05-06T11:41:32.346Z,101236.92
2019-05-06T11:43:07.017Z,101239.27
2019-05-06T11:44:44.140Z,101228.69
2019-05-06T11:46:18.427Z,101230.97
2019-05-06T11:47:55.993Z,101236.66
2019-05-06T11:49:29.457Z,101224.01
2019-05-06T11:51:05.759Z,101238.38
2019-05-06T11:52:43.324Z,101236.55
2019-05-06T11:54:20.849Z,101227.61
2019-05-06T11:55:55.061Z,101231.28
2019-05-06T11:57:29.902Z,101233.23
2019-05-06T11:59:04.647Z,101228.06
2019-05-06T12:00:44.444Z,101227.37
2019-05-06T12:02:20.146Z,101224.81
2019-05-06T12:03:54.898Z,101227.63
2019-05-06T12:05:29.575Z,101232.34
2019-05-06T12:07:11.400Z,101225.41
2019-05-06T12:08:43.236Z,101216.40
2019-05-06T12:10:19.236Z,101221.78
2019-05-06T12:11:53.852Z,101225.27
2019-05-06T12:13:28.591Z,101226.74
2019-05-06T12:15:06.706Z,101223.08
2019-05-06T12:16:39.719Z,101216.33
2019-05-06T12:18:14.741Z,101218.08
2019-05-06T12:19:49.383Z,101221.50
2019-05-06T12:21:24.141Z,101224.68
2019-05-06T12:22:58.800Z,101223.16
2019-05-06T12:24:33.497Z,101218.68
2019-05-06T12:26:13.004Z,101209.30
2019-05-06T12:27:47.289Z,101221.18
2019-05-06T12:29:21.964Z,101215.41
2019-05-06T12:30:56.684Z,101214.39
2019-05-06T12:32:36.726Z,101215.16
2019-05-06T12:34:12.477Z,101213.36
2019-05-06T12:35:48.188Z,101218.84
2019-05-06T12:37:24.622Z,101218.84
2019-05-06T12:39:24.801Z,101219.95
2019-05-06T12:41:00.116Z,101216.02
2019-05-06T12:42:43.176Z,101217.96
2019-05-06T12:44:18.086Z,101217.96
2019-05-06T12:45:55.268Z,101203.82
2019-05-06T12:47:43.697Z,101214.69
2019-05-06T12:49:18.331Z,101189.28
2019-05-06T12:50:52.986Z,101205.25
2019-05-06T12:52:32.352Z,101206.27
2019-05-06T12:54:07.118Z,101210.42
2019-05-06T12:55:43.164Z,101209.45
2019-05-06T12:57:19.061Z,101208.97
2019-05-06T12:58:53.717Z,101208.97
2019-05-06T13:00:30.496Z,101213.12
2019-05-06T13:02:05.282Z,101206.96
2019-05-06T13:03:39.996Z,101208.84
2019-05-06T13:05:15.104Z,101205.74
2019-05-06T13:06:52.073Z,101206.91
2019-05-06T13:08:35.916Z,101206.19
2019-05-06T13:10:02.998Z,101213.98
2019-05-06T13:11:37.826Z,101209.35
2019-05-06T13:13:12.842Z,101203.23
2019-05-06T13:14:47.534Z,101202.38
2019-05-06T13:16:22.881Z,101195.47
2019-05-06T13:17:57.712Z,101204.76
2019-05-06T13:19:32.438Z,101193.09
2019-05-06T13:21:07.259Z,101194.06
2019-05-06T13:22:56.688Z,101191.41
2019-05-06T13:24:32.664Z,101190.25
2019-05-06T13:26:07.646Z,101184.72
2019-05-06T13:27:42.991Z,101182.73
2019-05-06T13:29:24.704Z,101189.77
2019-05-06T13:31:13.409Z,101185.70
2019-05-06T13:32:38.184Z,101189.72
2019-05-06T13:34:16.720Z,101190.55
2019-05-06T13:35:52.623Z,101186.82
2019-05-06T13:37:27.551Z,101186.02
2019-05-06T13:39:14.158Z,101177.80
2019-05-06T13:40:51.340Z,101190.02
2019-05-06T13:42:17.402Z,101184.55
2019-05-06T13:44:02.598Z,101189.23
2019-05-06T13:45:37.540Z,101189.23
2019-05-06T13:47:16.158Z,101173.92
2019-05-06T13:48:57.652Z,101173.92
2019-05-06T13:50:33.078Z,101192.19
2019-05-06T13:52:15.439Z,101184.25
2019-05-06T13:53:50.076Z,101184.02
2019-05-06T13:55:24.812Z,101195.96
2019-05-06T13:56:59.464Z,101201.89
2019-05-06T13:58:34.170Z,101193.77
2019-05-06T14:00:09.236Z,101193.77
2019-05-06T14:01:52.731Z,101219.71
2019-05-06T14:03:26.898Z,101214.55
2019-05-06T14:05:02.982Z,101224.63
2019-05-06T14:06:37.909Z,101232.63
2019-05-06T14:08:13.048Z,101233.74
2019-05-06T14:09:47.773Z,101241.02
2019-05-06T14:11:23.033Z,101234.98
2019-05-06T14:12:57.843Z,101234.98
2019-05-06T14:14:32.513Z,101242.73
2019-05-06T14:16:07.176Z,101280.29
2019-05-06T14:17:42.471Z,101245.72
2019-05-06T14:19:17.270Z,101251.05
2019-05-06T14:20:52.247Z,101255.38
2019-05-06T14:22:26.988Z,101255.38
2019-05-06T14:24:02.540Z,101252.27
2019-05-06T14:25:52.666Z,101259.35
2019-05-06T14:27:26.853Z,101260.30
2019-05-06T14:29:07.908Z,101260.30
2019-05-06T14:30:58.275Z,101260.47
2019-05-06T14:32:33.013Z,101268.13
2019-05-06T14:34:07.636Z,101268.13
2019-05-06T14:35:43.021Z,101264.34
2019-05-06T14:37:17.868Z,101262.93
2019-05-06T14:38:53.414Z,101254.34
2019-05-06T14:40:28.666Z,101257.12
2019-05-06T14:42:04.258Z,101261.25
2019-05-06T14:43:39.282Z,101268.38
2019-05-06T14:45:14.788Z,101260.41
2019-05-06T14:47:14.880Z,101256.44
2019-05-06T14:48:49.651Z,101256.44
2019-05-06T14:50:31.221Z,101256.09
2019-05-06T14:52:02.883Z,101252.03
2019-05-06T14:53:37.625Z,101257.56
2019-05-06T14:55:23.498Z,101245.09
2019-05-06T14:57:02.755Z,101256.09
2019-05-06T14:58:37.379Z,101246.59
2019-05-06T15:00:14.824Z,101248.52
2019-05-06T15:01:49.472Z,101252.94
2019-05-06T15:03:24.425Z,101252.77
2019-05-06T15:04:59.124Z,101242.27
2019-05-06T15:06:34.037Z,101237.02
2019-05-06T15:08:08.711Z,101246.42
2019-05-06T15:09:55.620Z,101246.42
2019-05-06T15:11:19.740Z,101241.00
2019-05-06T15:12:55.676Z,101241.00
2019-05-06T15:14:32.940Z,101245.45
2019-05-06T15:16:06.953Z,101252.09
2019-05-06T15:17:44.458Z,101252.09
2019-05-06T15:19:19.212Z,101254.23
2019-05-06T15:20:53.968Z,101253.77
2019-05-06T15:22:28.609Z,101250.36
2019-05-06T15:24:03.256Z,101250.36
2019-05-06T15:25:37.938Z,101253.19
2019-05-06T15:27:12.664Z,101258.36
2019-05-06T15:28:47.310Z,101258.36
2019-05-06T15:30:29.325Z,101266.76
2019-05-06T15:32:09.705Z,101266.76
2019-05-06T15:33:46.276Z,101258.97
2019-05-06T15:35:33.078Z,101258.97
2019-05-06T15:37:17.205Z,101271.53
2019-05-06T15:38:52.764Z,101282.16
2019-05-06T15:40:32.674Z,101276.75
2019-05-06T15:42:04.935Z,101276.75
2019-05-06T15:43:39.585Z,101275.05
2019-05-06T15:45:14.399Z,101275.05
2019-05-06T15:46:49.142Z,101282.86
2019-05-06T15:48:23.811Z,101282.86
2019-05-06T15:49:58.469Z,101265.13
2019-05-06T15:51:36.228Z,101279.44
2019-05-06T15:53:12.563Z,101272.20
2019-05-06T15:54:48.455Z,101273.77
2019-05-06T15:56:23.187Z,101266.08
2019-05-06T15:57:57.835Z,101264.32
2019-05-06T15:59:33.292Z,101260.89
2019-05-06T16:01:08.506Z,101269.47
2019-05-06T16:02:43.190Z,101263.93
2019-05-06T16:04:17.893Z,101260.11
2019-05-06T16:05:55.096Z,101257.03
2019-05-06T16:07:31.842Z,101253.77
2019-05-06T16:09:06.546Z,101251.55
2019-05-06T16:10:52.000Z,101249.77
2019-05-06T16:12:19.395Z,101249.48
2019-05-06T16:13:54.068Z,101251.70
2019-05-06T16:15:28.727Z,101255.70
2019-05-06T16:17:03.446Z,101238.88
2019-05-06T16:18:38.111Z,101238.88
2019-05-06T16:20:14.129Z,101243.51
2019-05-06T16:21:48.943Z,101243.11
2019-05-06T16:23:33.260Z,101243.44
2019-05-06T16:25:10.392Z,101243.44
2019-05-06T16:26:45.657Z,101242.20
2019-05-06T16:28:22.393Z,101247.11
2019-05-06T16:29:58.042Z,101243.78
2019-05-06T16:31:33.696Z,101245.37
2019-05-06T16:33:08.432Z,101245.37
2019-05-06T16:34:43.216Z,101238.75
2019-05-06T16:36:17.864Z,101238.75
2019-05-06T16:37:52.529Z,101243.88
2019-05-06T16:39:27.192Z,101243.88
2019-05-06T16:41:10.388Z,101236.13
2019-05-06T16:42:38.249Z,101236.13
2019-05-06T16:44:13.955Z,101238.31
2019-05-06T16:45:48.679Z,101238.31
2019-05-06T16:47:39.089Z,101243.75
2019-05-06T16:49:14.261Z,101243.75
2019-05-06T16:50:49.075Z,101237.55
2019-05-06T16:52:23.790Z,101241.73
2019-05-06T16:53:58.572Z,101248.91
2019-05-06T16:56:12.994Z,101243.03
2019-05-06T16:57:52.978Z,101240.11
2019-05-06T16:59:27.723Z,101240.11
2019-05-06T17:01:03.725Z,101244.53
2019-05-06T17:03:06.301Z,101252.98
2019-05-06T17:04:46.288Z,101250.37
2019-05-06T17:06:26.053Z,101255.25
2019-05-06T17:08:02.811Z,101255.25
2019-05-06T17:09:37.058Z,101266.00
2019-05-06T17:11:24.314Z,101266.00
2019-05-06T17:12:48.171Z,101252.94
2019-05-06T17:14:22.821Z,101253.92
2019-05-06T17:15:57.462Z,101253.92
2019-05-06T17:17:40.692Z,101255.82
2019-05-06T17:19:08.564Z,101257.46
2019-05-06T17:20:43.334Z,101259.59
2019-05-06T17:22:18.062Z,101253.17
2019-05-06T17:23:52.798Z,101253.17
2019-05-06T17:25:27.531Z,101242.73
2019-05-06T17:27:02.802Z,101242.73
2019-05-06T17:28:57.382Z,101235.70
2019-05-06T17:30:43.086Z,101234.09
2019-05-06T17:32:25.455Z,101239.73
2019-05-06T17:34:02.532Z,101232.24
2019-05-06T17:35:36.847Z,101232.24
2019-05-06T17:37:29.343Z,101238.77
2019-05-06T17:39:07.060Z,101233.57
2019-05-06T17:40:42.914Z,101239.66
2019-05-06T17:42:17.605Z,101230.13
2019-05-06T17:43:52.262Z,101230.13
2019-05-06T17:45:58.527Z,101234.64
2019-05-06T17:47:36.614Z,101237.92
2019-05-06T17:49:38.805Z,101232.50
2019-05-06T17:51:33.793Z,101232.50
2019-05-06T17:53:08.995Z,101241.42
2019-05-06T17:54:43.726Z,101245.46
2019-05-06T17:56:18.546Z,101245.46
2019-05-06T17:57:53.436Z,101249.77
2019-05-06T17:59:28.065Z,101248.30
2019-05-06T18:01:03.374Z,101245.57
2019-05-06T18:02:38.251Z,101254.54
2019-05-06T18:04:13.077Z,101256.55
2019-05-06T18:05:47.779Z,101256.55
2019-05-06T18:07:22.491Z,101261.63
2019-05-06T18:08:57.233Z,101260.00
2019-05-06T18:10:33.498Z,101271.45
2019-05-06T18:12:08.402Z,101265.53
2019-05-06T18:13:43.317Z,101271.59
2019-05-06T18:15:18.062Z,101271.59
2019-05-06T18:16:53.789Z,101276.09
2019-05-06T18:18:29.107Z,101276.09
2019-05-06T18:20:04.293Z,101271.30
2019-05-06T18:21:38.946Z,101261.70
2019-05-06T18:23:13.692Z,101272.48
2019-05-06T18:24:48.381Z,101277.81
2019-05-06T18:26:24.092Z,101273.50
2019-05-06T18:27:58.789Z,101282.36
2019-05-06T18:29:33.821Z,101282.36
2019-05-06T18:31:08.560Z,101282.94
2019-05-06T18:32:43.237Z,101286.19
2019-05-06T18:34:46.713Z,101285.11
2019-05-06T18:36:22.652Z,101287.20
2019-05-06T18:37:57.457Z,101291.31
2019-05-06T18:39:33.752Z,101294.11